createdAt,value
2023-03-13T00:02:07.974Z,97127.66
2023-03-13T00:06:10.973Z,97128.63
2023-03-13T00:10:12.370Z,97124.88
2023-03-13T00:14:13.695Z,97122.31
2023-03-13T00:18:15.082Z,97114.31
2023-03-13T00:22:17.828Z,97110.00
2023-03-13T00:26:20.258Z,97107.44
2023-03-13T00:30:21.644Z,97094.81
2023-03-13T00:34:22.977Z,97084.13
2023-03-13T00:38:25.679Z,97091.53
2023-03-13T00:42:27.020Z,97087.06
2023-03-13T00:46:29.474Z,97075.22
2023-03-13T00:50:30.890Z,97074.94
2023-03-13T00:54:33.666Z,97066.88
2023-03-13T00:58:36.010Z,97059.84
2023-03-13T01:02:40.983Z,97052.78
2023-03-13T01:06:42.407Z,97047.28
2023-03-13T01:10:45.099Z,97037.63
2023-03-13T01:14:49.352Z,97031.84
2023-03-13T01:18:51.915Z,97025.78
2023-03-13T01:22:53.245Z,97024.25
2023-03-13T01:26:55.922Z,97024.47
2023-03-13T01:30:57.358Z,97018.75
2023-03-13T01:34:58.752Z,97019.28
2023-03-13T01:39:00.748Z,97024.44
2023-03-13T01:43:17.599Z,97032.72
2023-03-13T01:47:28.489Z,97020.38
2023-03-13T01:51:32.269Z,97026.34
2023-03-13T01:55:34.251Z,97025.72
2023-03-13T01:59:40.627Z,97021.91
2023-03-13T02:03:42.235Z,97015.72
2023-03-13T02:07:47.247Z,97008.06
2023-03-13T02:11:51.871Z,97023.66
2023-03-13T02:15:54.795Z,97009.53
2023-03-13T02:19:56.249Z,97005.03
2023-03-13T02:24:01.305Z,96991.13
2023-03-13T02:28:07.266Z,96994.44
2023-03-13T02:32:08.658Z,96984.28
2023-03-13T02:36:11.506Z,96991.53
2023-03-13T02:40:15.437Z,96993.41
2023-03-13T02:44:18.131Z,97000.88
2023-03-13T02:48:29.222Z,97003.50
2023-03-13T02:52:32.392Z,96999.78
2023-03-13T02:56:34.349Z,96983.22
2023-03-13T03:00:37.109Z,96984.72
2023-03-13T03:04:38.484Z,96989.75
2023-03-13T03:08:39.824Z,97001.03
2023-03-13T03:12:41.156Z,96990.03
2023-03-13T03:16:43.908Z,96985.66
2023-03-13T03:20:45.443Z,96992.22
2023-03-13T03:24:46.796Z,96988.63
2023-03-13T03:28:48.153Z,96975.75
2023-03-13T03:32:50.875Z,96971.03
2023-03-13T03:36:52.264Z,96961.22
2023-03-13T03:40:53.680Z,96964.78
2023-03-13T03:44:55.032Z,96960.97
2023-03-13T03:48:57.739Z,96966.53
2023-03-13T03:52:59.068Z,96958.19
2023-03-13T03:57:00.483Z,96941.31
2023-03-13T04:01:01.807Z,96939.44
2023-03-13T04:05:04.812Z,96931.34
2023-03-13T04:09:06.152Z,96932.03
2023-03-13T04:13:07.468Z,96922.84
2023-03-13T04:17:08.808Z,96923.38
2023-03-13T04:21:11.521Z,96922.47
2023-03-13T04:25:12.872Z,96921.72
2023-03-13T04:29:14.203Z,96917.50
2023-03-13T04:33:15.595Z,96923.44
2023-03-13T04:37:18.689Z,96911.03
2023-03-13T04:41:20.032Z,96907.28
2023-03-13T04:45:21.362Z,96895.31
2023-03-13T04:49:22.685Z,96895.53
2023-03-13T04:53:25.444Z,96892.88
2023-03-13T04:57:26.782Z,96884.09
2023-03-13T05:01:28.299Z,96873.09
2023-03-13T05:05:29.797Z,96888.91
2023-03-13T05:09:32.531Z,96873.75
2023-03-13T05:13:33.956Z,96878.91
2023-03-13T05:17:35.311Z,96868.59
2023-03-13T05:21:36.746Z,96863.91
2023-03-13T05:25:39.472Z,96852.59
2023-03-13T05:29:40.818Z,96840.94
2023-03-13T05:33:42.202Z,96847.16
2023-03-13T05:37:43.628Z,96825.09
2023-03-13T05:41:46.426Z,96828.13
2023-03-13T05:45:47.794Z,96825.19
2023-03-13T05:49:49.127Z,96821.91
2023-03-13T05:53:50.516Z,96832.75
2023-03-13T05:57:53.240Z,96836.03
2023-03-13T06:01:54.598Z,96832.63
2023-03-13T06:05:57.629Z,96840.34
2023-03-13T06:09:58.977Z,96819.75
2023-03-13T06:14:01.674Z,96815.38
2023-03-13T06:18:03.006Z,96828.53
2023-03-13T06:22:04.388Z,96819.66
2023-03-13T06:26:05.753Z,96817.13
2023-03-13T06:30:09.535Z,96820.19
2023-03-13T06:34:11.341Z,96793.63
2023-03-13T06:38:12.757Z,96810.41
2023-03-13T06:42:14.108Z,96806.56
2023-03-13T06:46:20.419Z,96805.97
2023-03-13T06:50:21.772Z,96785.19
2023-03-13T06:54:23.144Z,96769.72
2023-03-13T06:58:32.243Z,96771.66
2023-03-13T07:02:35.399Z,96777.34
2023-03-13T07:06:36.735Z,96778.22
2023-03-13T07:10:38.084Z,96785.06
2023-03-13T07:14:39.414Z,96786.03
2023-03-13T07:18:42.213Z,96789.38
2023-03-13T07:22:43.585Z,96781.25
2023-03-13T07:27:01.876Z,96782.53
2023-03-13T07:31:07.012Z,96789.25
2023-03-13T07:35:09.770Z,96763.28
2023-03-13T07:39:11.110Z,96772.28
2023-03-13T07:43:12.458Z,96774.09
2023-03-13T07:47:13.775Z,96777.25
2023-03-13T07:51:17.872Z,96761.03
2023-03-13T07:55:19.217Z,96777.03
2023-03-13T07:59:20.564Z,96762.28
2023-03-13T08:03:22.998Z,96771.06
2023-03-13T08:07:25.747Z,96770.72
2023-03-13T08:11:27.831Z,96777.47
2023-03-13T08:15:29.377Z,96772.88
2023-03-13T08:19:31.019Z,96775.34
2023-03-13T08:23:34.248Z,96771.06
2023-03-13T08:27:35.571Z,96773.63
2023-03-13T08:31:37.809Z,96767.50
2023-03-13T08:35:39.213Z,96759.78
2023-03-13T08:39:41.966Z,96771.84
2023-03-13T08:43:43.595Z,96763.56
2023-03-13T08:47:44.965Z,96767.34
2023-03-13T08:51:46.340Z,96743.00
2023-03-13T08:55:53.532Z,96746.31
2023-03-13T08:59:54.900Z,96732.59
2023-03-13T09:03:57.602Z,96725.22
2023-03-13T09:07:59.150Z,96730.31
2023-03-13T09:12:01.853Z,96727.81
2023-03-13T09:16:04.308Z,96719.59
2023-03-13T09:20:06.360Z,96705.44
2023-03-13T09:24:08.070Z,96689.72
2023-03-13T09:28:11.265Z,96683.59
2023-03-13T09:32:12.624Z,96668.03
2023-03-13T09:36:14.088Z,96677.88
2023-03-13T09:40:17.208Z,96678.53
2023-03-13T09:44:22.368Z,96682.59
2023-03-13T09:48:29.268Z,96680.81
2023-03-13T09:52:31.772Z,96673.66
2023-03-13T09:56:37.001Z,96676.72
2023-03-13T10:00:40.533Z,96677.53
2023-03-13T10:04:44.527Z,96677.19
2023-03-13T10:08:45.882Z,96664.03
2023-03-13T10:12:48.374Z,96672.16
2023-03-13T10:16:54.472Z,96677.06
2023-03-13T10:20:58.472Z,96673.97
2023-03-13T10:25:02.530Z,96678.53
2023-03-13T10:29:15.006Z,96670.19
2023-03-13T10:33:21.536Z,96671.47
2023-03-13T10:37:24.281Z,96659.75
2023-03-13T10:41:27.784Z,96665.16
2023-03-13T10:45:32.310Z,96662.03
2023-03-13T10:49:46.589Z,96660.97
2023-03-13T10:53:48.855Z,96658.53
2023-03-13T10:57:55.467Z,96652.81
2023-03-13T11:02:00.299Z,96652.03
2023-03-13T11:06:03.421Z,96647.47
2023-03-13T11:10:16.672Z,96640.34
2023-03-13T11:14:19.186Z,96636.84
2023-03-13T11:18:24.158Z,96623.88
2023-03-13T11:22:30.552Z,96630.69
2023-03-13T11:26:34.912Z,96626.25
2023-03-13T11:30:45.008Z,96631.38
2023-03-13T11:34:49.091Z,96616.59
2023-03-13T11:38:53.623Z,96604.09
2023-03-13T11:43:23.967Z,96604.75
2023-03-13T11:47:37.623Z,96596.06
2023-03-13T11:51:44.383Z,96598.25
2023-03-13T11:55:50.609Z,96598.59
2023-03-13T11:59:57.233Z,96589.09
2023-03-13T12:03:59.889Z,96601.91
2023-03-13T12:08:03.343Z,96593.25
2023-03-13T12:12:12.091Z,96597.66
2023-03-13T12:16:16.610Z,96591.66
2023-03-13T12:20:21.881Z,96585.22
2023-03-13T12:24:26.608Z,96575.75
2023-03-13T12:28:33.849Z,96558.38
2023-03-13T12:32:37.168Z,96549.94
2023-03-13T12:36:41.327Z,96542.22
2023-03-13T12:40:47.341Z,96531.69
2023-03-13T12:44:50.309Z,96539.13
2023-03-13T12:49:04.900Z,96532.63
2023-03-13T12:53:27.278Z,96535.97
2023-03-13T12:57:50.180Z,96517.91
2023-03-13T13:01:54.281Z,96520.84
2023-03-13T13:05:59.709Z,96511.69
2023-03-13T13:10:03.118Z,96499.50
2023-03-13T13:14:22.372Z,96490.94
2023-03-13T13:18:26.024Z,96485.22
2023-03-13T13:22:45.970Z,96479.94
2023-03-13T13:26:50.438Z,96457.44
2023-03-13T13:30:55.369Z,96436.84
2023-03-13T13:35:02.436Z,96435.81
2023-03-13T13:39:21.202Z,96418.94
2023-03-13T13:43:23.278Z,96417.56
2023-03-13T13:47:26.353Z,96410.72
2023-03-13T13:51:29.042Z,96402.13
2023-03-13T13:55:41.573Z,96397.19
2023-03-13T13:59:44.037Z,96388.19
2023-03-13T14:03:45.560Z,96381.63
2023-03-13T14:07:51.608Z,96356.50
2023-03-13T14:11:52.936Z,96363.06
2023-03-13T14:15:54.375Z,96345.88
2023-03-13T14:19:55.812Z,96348.97
2023-03-13T14:23:58.565Z,96352.44
2023-03-13T14:27:59.944Z,96333.03
2023-03-13T14:32:01.298Z,96336.69
2023-03-13T14:36:03.130Z,96319.47
2023-03-13T14:40:18.784Z,96313.16
2023-03-13T14:44:23.766Z,96301.88
2023-03-13T14:48:27.799Z,96300.69
2023-03-13T14:52:30.143Z,96269.66
2023-03-13T14:56:34.256Z,96264.41
2023-03-13T15:00:37.319Z,96248.03
2023-03-13T15:04:48.065Z,96247.78
2023-03-13T15:09:07.142Z,96236.63
2023-03-13T15:13:17.659Z,96231.25
2023-03-13T15:17:19.981Z,96228.78
2023-03-13T15:21:25.821Z,96226.44
2023-03-13T15:25:27.191Z,96211.72
2023-03-13T15:29:29.933Z,96208.66
2023-03-13T15:33:31.516Z,96185.41
2023-03-13T15:37:32.876Z,96178.94
2023-03-13T15:41:34.284Z,96171.75
2023-03-13T15:45:38.358Z,96160.19
2023-03-13T15:49:39.796Z,96144.81
2023-03-13T15:53:41.803Z,96136.00
2023-03-13T15:57:45.472Z,96123.22
2023-03-13T16:01:48.178Z,96119.44
2023-03-13T16:05:49.529Z,96118.44
2023-03-13T16:09:51.022Z,96110.97
2023-03-13T16:13:52.398Z,96115.94
2023-03-13T16:17:55.206Z,96108.38
2023-03-13T16:21:56.610Z,96088.13
2023-03-13T16:25:58.009Z,96066.81
2023-03-13T16:29:59.350Z,96059.06
2023-03-13T16:34:02.061Z,96050.63
2023-03-13T16:38:03.616Z,96049.31
2023-03-13T16:42:05.050Z,96027.53
2023-03-13T16:46:09.524Z,96040.19
2023-03-13T16:50:16.513Z,96023.34
2023-03-13T16:54:18.036Z,96020.84
2023-03-13T16:58:19.385Z,96023.00
2023-03-13T17:02:20.844Z,96021.56
2023-03-13T17:06:25.220Z,96011.25
2023-03-13T17:10:27.513Z,96001.41
2023-03-13T17:14:28.847Z,95993.06
2023-03-13T17:18:30.246Z,95985.28
2023-03-13T17:22:32.953Z,95979.47
2023-03-13T17:26:35.735Z,95988.16
2023-03-13T17:30:37.134Z,95978.03
2023-03-13T17:34:38.608Z,95977.66
2023-03-13T17:38:41.416Z,95969.75
2023-03-13T17:42:42.800Z,95964.66
2023-03-13T17:46:44.900Z,95954.13
2023-03-13T17:50:46.274Z,95945.25
2023-03-13T17:54:49.035Z,95944.25
2023-03-13T17:58:51.787Z,95926.03
2023-03-13T18:02:53.281Z,95917.81
2023-03-13T18:06:54.709Z,95911.81
2023-03-13T18:10:57.422Z,95903.25
2023-03-13T18:14:58.838Z,95887.25
2023-03-13T18:19:00.270Z,95888.28
2023-03-13T18:23:01.683Z,95892.66
2023-03-13T18:27:05.484Z,95889.56
2023-03-13T18:31:09.607Z,95891.94
2023-03-13T18:35:11.316Z,95880.06
2023-03-13T18:39:13.663Z,95865.88
2023-03-13T18:43:16.375Z,95858.81
2023-03-13T18:47:18.468Z,95852.91
2023-03-13T18:51:21.072Z,95845.78
2023-03-13T18:55:22.826Z,95834.06
2023-03-13T18:59:25.598Z,95813.88
2023-03-13T19:03:26.943Z,95799.03
2023-03-13T19:07:28.390Z,95799.09
2023-03-13T19:11:30.725Z,95793.13
2023-03-13T19:15:33.851Z,95778.31
2023-03-13T19:19:35.241Z,95777.47
2023-03-13T19:23:36.581Z,95773.00
2023-03-13T19:27:37.941Z,95762.75
2023-03-13T19:31:40.727Z,95777.13
2023-03-13T19:35:42.172Z,95755.38
2023-03-13T19:39:43.590Z,95747.53
2023-03-13T19:43:45.110Z,95740.13
2023-03-13T19:47:48.027Z,95736.25
2023-03-13T19:51:49.393Z,95731.88
2023-03-13T19:55:50.793Z,95726.47
2023-03-13T19:59:52.182Z,95740.25
2023-03-13T20:03:54.952Z,95745.97
2023-03-13T20:07:56.320Z,95738.06
2023-03-13T20:11:57.670Z,95732.72
2023-03-13T20:15:59.103Z,95742.56
2023-03-13T20:20:01.915Z,95713.16
2023-03-13T20:24:03.490Z,95708.41
2023-03-13T20:28:04.965Z,95691.91
2023-03-13T20:32:06.343Z,95689.84
2023-03-13T20:36:10.020Z,95687.56
2023-03-13T20:40:12.046Z,95684.38
2023-03-13T20:44:13.437Z,95699.56
2023-03-13T20:48:15.205Z,95700.28
2023-03-13T20:52:17.995Z,95690.19
2023-03-13T20:56:19.406Z,95697.97
2023-03-13T21:00:21.192Z,95694.28
2023-03-13T21:04:22.810Z,95695.47
2023-03-13T21:08:25.625Z,95717.19
2023-03-13T21:12:27.016Z,95726.03
2023-03-13T21:16:28.400Z,95738.00
2023-03-13T21:20:30.597Z,95765.25
2023-03-13T21:24:33.331Z,95896.69
2023-03-13T21:28:34.971Z,95881.28
2023-03-13T21:32:36.853Z,95885.78
2023-03-13T21:36:38.392Z,95897.78
2023-03-13T21:40:41.159Z,95879.59
2023-03-13T21:44:42.587Z,95859.19
2023-03-13T21:52:47.379Z,95834.09
2023-03-13T21:56:50.228Z,95839.44
2023-03-13T22:00:53.499Z,95862.59
2023-03-13T22:04:54.902Z,95897.84
2023-03-13T22:08:56.277Z,95929.59
2023-03-13T22:12:59.013Z,95960.34
2023-03-13T22:17:00.406Z,95996.31
2023-03-13T22:21:01.819Z,96034.31
2023-03-13T22:25:03.381Z,96048.81
2023-03-13T22:29:06.139Z,96065.19
2023-03-13T22:33:07.651Z,96075.47
2023-03-13T22:37:09.046Z,96054.06
2023-03-13T22:41:11.395Z,96048.56
2023-03-13T22:45:14.122Z,96039.13
2023-03-13T22:49:15.486Z,96029.50
2023-03-13T22:53:16.825Z,96013.88
2023-03-13T22:57:18.209Z,96001.50
2023-03-13T23:01:21.038Z,95993.25
2023-03-13T23:05:22.448Z,95982.28
2023-03-13T23:09:23.827Z,95968.31
2023-03-13T23:13:25.229Z,95970.41
2023-03-13T23:17:29.529Z,95957.41
2023-03-13T23:21:30.903Z,95942.59
2023-03-13T23:25:32.273Z,95930.81
2023-03-13T23:29:33.632Z,95925.91
2023-03-13T23:33:36.341Z,95897.25
2023-03-13T23:37:38.063Z,95888.97
2023-03-13T23:41:39.471Z,95860.94
2023-03-13T23:45:40.854Z,95851.38
2023-03-13T23:49:43.612Z,95857.28
2023-03-13T23:53:44.969Z,95855.69
2023-03-13T23:57:48.521Z,95842.91
